Time;durP1;ratioP1;P1;durP2;ratioP2;P2;SDS_P1;SDS_P2;PMS_P1;PMS_P2;Temp;Humidity;BMP_temperature;BMP_pressure;BME280_temperature;BME280_humidity;BME280_pressure;Samples;Min_cycle;Max_cycle;Signal;HPM_P1;HPM_P2
2021/08/09 00:00:45;;;;;;;18.83;17.73;;;;;;;;;;5095278;28;20427;-92
2021/08/09 00:03:14;;;;;;;19.97;18.90;;;;;;;;;;5096451;28;20411;-92
2021/08/09 00:05:41;;;;;;;18.20;17.00;;;;;;;;;;5096352;28;20437;-92
2021/08/09 00:08:09;;;;;;;17.80;16.80;;;;;;;;;;5095880;28;20984;-93
2021/08/09 00:10:36;;;;;;;19.47;18.10;;;;;;;;;;5096018;28;20439;-92
2021/08/09 00:13:04;;;;;;;17.90;16.90;;;;;;;;;;5096284;28;20419;-93
2021/08/09 00:15:31;;;;;;;18.70;17.77;;;;;;;;;;5078695;28;20486;-93
2021/08/09 00:17:59;;;;;;;18.60;17.50;;;;;;;;;;5096037;28;20441;-93
2021/08/09 00:20:28;;;;;;;17.90;17.00;;;;;;;;;;5095987;28;20473;-92
2021/08/09 00:22:56;;;;;;;18.13;17.13;;;;;;;;;;5096200;28;20411;-92
2021/08/09 00:25:24;;;;;;;18.33;17.40;;;;;;;;;;5095984;28;20803;-93
2021/08/09 00:27:51;;;;;;;19.17;18.07;;;;;;;;;;5094770;28;20455;-92
2021/08/09 00:30:18;;;;;;;18.53;17.43;;;;;;;;;;5094729;28;20416;-92
2021/08/09 00:32:46;;;;;;;18.37;17.37;;;;;;;;;;5095233;28;20411;-92
2021/08/09 00:35:13;;;;;;;18.00;17.00;;;;;;;;;;5095777;28;20428;-93
2021/08/09 00:37:42;;;;;;;18.60;17.60;;;;;;;;;;5095977;28;20441;-92
2021/08/09 00:40:10;;;;;;;17.90;17.00;;;;;;;;;;5095858;28;20445;-92
2021/08/09 00:42:38;;;;;;;18.20;17.20;;;;;;;;;;5094458;28;20452;-92
2021/08/09 00:45:06;;;;;;;18.10;17.10;;;;;;;;;;5095422;28;20468;-92
2021/08/09 00:47:33;;;;;;;18.37;17.50;;;;;;;;;;5094896;28;20487;-92
2021/08/09 00:50:01;;;;;;;19.10;17.67;;;;;;;;;;5095438;28;20933;-93
2021/08/09 00:52:29;;;;;;;18.13;17.00;;;;;;;;;;5094388;28;20408;-92
2021/08/09 00:54:58;;;;;;;18.60;17.60;;;;;;;;;;5096075;28;20407;-93
2021/08/09 00:57:26;;;;;;;18.27;17.17;;;;;;;;;;5094987;28;20445;-93
2021/08/09 00:59:53;;;;;;;19.10;17.73;;;;;;;;;;5095211;28;20405;-93
2021/08/09 01:02:21;;;;;;;18.50;17.43;;;;;;;;;;5094999;28;20416;-93
2021/08/09 01:04:48;;;;;;;18.10;16.90;;;;;;;;;;5095712;28;20449;-93
2021/08/09 01:07:16;;;;;;;18.87;17.57;;;;;;;;;;5094668;28;20519;-92
2021/08/09 01:09:45;;;;;;;18.20;17.30;;;;;;;;;;5094227;28;20433;-92
2021/08/09 01:12:17;;;;;;;18.90;17.63;;;;;;;;;;5093726;28;20434;-92
2021/08/09 01:14:50;;;;;;;18.60;17.50;;;;;;;;;;5095028;28;20449;-92
2021/08/09 01:17:18;;;;;;;18.97;17.87;;;;;;;;;;5094796;28;20438;-93
2021/08/09 01:19:53;;;;;;;18.70;17.70;;;;;;;;;;5094977;28;20439;-93
2021/08/09 01:22:30;;;;;;;19.60;18.20;;;;;;;;;;5094871;28;20411;-92
2021/08/09 01:25:02;;;;;;;18.37;17.33;;;;;;;;;;5094959;28;20408;-93
2021/08/09 01:27:32;;;;;;;18.50;17.60;;;;;;;;;;5094721;28;20447;-92
2021/08/09 01:30:02;;;;;;;19.47;18.30;;;;;;;;;;5094165;28;20446;-92
2021/08/09 01:32:31;;;;;;;18.73;17.70;;;;;;;;;;5094561;28;20415;-92
2021/08/09 01:34:58;;;;;;;18.60;17.60;;;;;;;;;;5094987;28;20532;-92
2021/08/09 01:37:27;;;;;;;18.63;17.63;;;;;;;;;;5094826;28;20930;-93
2021/08/09 01:39:55;;;;;;;19.03;17.93;;;;;;;;;;5093667;28;20424;-92
2021/08/09 01:42:22;;;;;;;18.70;17.70;;;;;;;;;;5093813;28;20433;-92
2021/08/09 01:44:52;;;;;;;18.40;17.37;;;;;;;;;;5094196;28;20765;-92
2021/08/09 01:47:19;;;;;;;19.00;17.50;;;;;;;;;;5094424;28;20527;-92
2021/08/09 01:49:47;;;;;;;18.70;17.60;;;;;;;;;;5093761;28;20445;-92
2021/08/09 01:52:15;;;;;;;19.23;18.23;;;;;;;;;;5094325;28;20437;-92
2021/08/09 01:54:42;;;;;;;19.03;17.87;;;;;;;;;;5095123;28;20416;-93
2021/08/09 01:57:10;;;;;;;18.73;17.40;;;;;;;;;;5094813;28;20859;-92
2021/08/09 01:59:37;;;;;;;18.13;17.13;;;;;;;;;;5093262;28;20950;-93
2021/08/09 02:02:06;;;;;;;19.23;18.23;;;;;;;;;;5094495;28;20442;-93
2021/08/09 02:04:34;;;;;;;19.73;18.53;;;;;;;;;;5094170;28;20412;-93
2021/08/09 02:07:01;;;;;;;19.37;18.30;;;;;;;;;;5094972;28;20437;-92
2021/08/09 02:09:29;;;;;;;18.73;17.63;;;;;;;;;;5094045;28;20483;-93
2021/08/09 02:12:01;;;;;;;18.77;17.67;;;;;;;;;;5095183;28;20569;-92
2021/08/09 02:14:31;;;;;;;18.60;17.53;;;;;;;;;;5094552;28;20490;-91
2021/08/09 02:17:04;;;;;;;18.90;17.70;;;;;;;;;;5093315;28;20455;-92
2021/08/09 02:19:38;;;;;;;18.03;17.07;;;;;;;;;;5094290;28;20465;-92
2021/08/09 02:22:09;;;;;;;19.13;18.00;;;;;;;;;;5094393;28;20793;-93
2021/08/09 02:24:42;;;;;;;18.47;17.57;;;;;;;;;;5097571;28;20855;-92
2021/08/09 02:27:10;;;;;;;19.70;18.60;;;;;;;;;;5098325;28;20430;-93
2021/08/09 02:29:40;;;;;;;19.30;18.20;;;;;;;;;;5098575;28;20433;-92
2021/08/09 02:32:09;;;;;;;19.30;18.20;;;;;;;;;;5098034;28;20412;-92
2021/08/09 02:34:39;;;;;;;19.10;18.00;;;;;;;;;;5097856;28;20492;-92
2021/08/09 02:37:08;;;;;;;19.63;18.43;;;;;;;;;;5098121;28;20441;-92
2021/08/09 02:39:35;;;;;;;19.67;18.50;;;;;;;;;;5098112;28;20431;-93
2021/08/09 02:42:03;;;;;;;20.10;18.87;;;;;;;;;;5097917;28;20433;-92
2021/08/09 02:44:31;;;;;;;19.83;18.57;;;;;;;;;;5097093;28;20433;-93
2021/08/09 02:46:59;;;;;;;19.50;18.40;;;;;;;;;;5096686;28;20456;-93
2021/08/09 02:49:27;;;;;;;19.13;18.13;;;;;;;;;;5097765;28;20493;-93
2021/08/09 02:51:56;;;;;;;19.20;18.10;;;;;;;;;;5097835;28;20464;-92
2021/08/09 02:54:24;;;;;;;19.20;18.10;;;;;;;;;;5096719;28;20498;-93
2021/08/09 02:56:52;;;;;;;19.40;18.20;;;;;;;;;;5097835;28;20839;-93
2021/08/09 02:59:19;;;;;;;19.50;18.30;;;;;;;;;;5097760;28;20448;-92
2021/08/09 03:01:47;;;;;;;19.90;18.53;;;;;;;;;;5097234;28;20440;-93
2021/08/09 03:04:16;;;;;;;18.40;17.27;;;;;;;;;;5097331;28;20460;-92
2021/08/09 03:06:43;;;;;;;19.73;18.73;;;;;;;;;;5096979;28;20413;-93
2021/08/09 03:09:12;;;;;;;18.80;17.80;;;;;;;;;;5096745;28;20451;-91
2021/08/09 03:11:42;;;;;;;18.80;17.60;;;;;;;;;;5097203;28;20416;-92
2021/08/09 03:14:21;;;;;;;19.07;18.00;;;;;;;;;;5096219;28;20472;-93
2021/08/09 03:16:49;;;;;;;18.67;17.70;;;;;;;;;;5097671;28;20884;-92
2021/08/09 03:19:17;;;;;;;18.90;17.80;;;;;;;;;;5097174;28;20531;-93
2021/08/09 03:21:50;;;;;;;18.70;17.60;;;;;;;;;;5097230;28;20433;-93
2021/08/09 03:24:20;;;;;;;19.87;18.53;;;;;;;;;;5097311;28;20467;-92
2021/08/09 03:26:47;;;;;;;18.33;17.47;;;;;;;;;;5096761;28;20457;-93
2021/08/09 03:29:16;;;;;;;19.90;18.60;;;;;;;;;;5096822;28;20476;-92
2021/08/09 03:31:43;;;;;;;19.73;18.03;;;;;;;;;;5096509;28;20990;-92
2021/08/09 03:34:11;;;;;;;20.80;19.40;;;;;;;;;;5096779;28;20400;-93
2021/08/09 03:36:41;;;;;;;18.00;17.10;;;;;;;;;;5096871;28;20438;-93
2021/08/09 03:39:08;;;;;;;19.10;17.63;;;;;;;;;;5096299;28;20421;-92
2021/08/09 03:41:37;;;;;;;19.27;18.07;;;;;;;;;;5096433;28;20453;-92
2021/08/09 03:44:05;;;;;;;19.20;17.93;;;;;;;;;;5096444;28;20408;-92
2021/08/09 03:46:33;;;;;;;19.03;17.80;;;;;;;;;;5095568;28;20538;-91
2021/08/09 03:49:03;;;;;;;19.00;17.90;;;;;;;;;;5095978;28;20455;-92
2021/08/09 03:51:31;;;;;;;18.90;17.80;;;;;;;;;;5095515;28;20433;-92
2021/08/09 03:53:59;;;;;;;19.20;18.00;;;;;;;;;;5096176;28;20479;-93
2021/08/09 03:56:26;;;;;;;19.13;17.93;;;;;;;;;;5095402;28;20445;-93
2021/08/09 03:58:55;;;;;;;18.30;17.00;;;;;;;;;;5096413;28;20405;-93
2021/08/09 04:01:23;;;;;;;18.27;17.27;;;;;;;;;;5095985;28;20408;-92
2021/08/09 04:03:50;;;;;;;19.60;18.50;;;;;;;;;;5095372;28;20441;-93
2021/08/09 04:06:18;;;;;;;17.77;16.83;;;;;;;;;;5095803;28;20519;-93
2021/08/09 04:08:45;;;;;;;19.17;18.17;;;;;;;;;;5095861;28;20480;-93
2021/08/09 04:11:13;;;;;;;18.57;17.37;;;;;;;;;;5095804;28;20917;-93
2021/08/09 04:13:41;;;;;;;19.20;17.93;;;;;;;;;;5095034;28;20419;-93
2021/08/09 04:16:10;;;;;;;19.90;18.30;;;;;;;;;;5096204;28;20502;-92
2021/08/09 04:18:38;;;;;;;17.67;16.77;;;;;;;;;;5096471;28;20449;-92
2021/08/09 04:21:06;;;;;;;18.07;16.80;;;;;;;;;;5095378;28;20441;-93
2021/08/09 04:23:33;;;;;;;19.37;18.17;;;;;;;;;;5094858;28;20439;-92
2021/08/09 04:26:01;;;;;;;18.03;17.13;;;;;;;;;;5095828;28;20412;-93
2021/08/09 04:28:28;;;;;;;19.20;17.83;;;;;;;;;;5095382;28;20468;-92
2021/08/09 04:30:56;;;;;;;18.20;17.30;;;;;;;;;;5095356;28;20930;-92
2021/08/09 04:33:25;;;;;;;18.83;17.87;;;;;;;;;;5094690;28;20833;-93
2021/08/09 04:35:52;;;;;;;18.23;17.13;;;;;;;;;;5095645;28;20411;-93
2021/08/09 04:38:20;;;;;;;18.37;17.27;;;;;;;;;;5095925;28;20408;-93
2021/08/09 04:40:47;;;;;;;18.13;17.13;;;;;;;;;;5095600;28;20433;-93
2021/08/09 04:43:14;;;;;;;17.97;17.00;;;;;;;;;;5095486;28;20448;-92
2021/08/09 04:45:42;;;;;;;18.47;17.37;;;;;;;;;;5094656;28;20436;-92
2021/08/09 04:48:09;;;;;;;18.80;17.70;;;;;;;;;;5095344;28;20429;-89
2021/08/09 04:50:39;;;;;;;18.20;17.33;;;;;;;;;;5094869;28;20452;-89
2021/08/09 04:53:08;;;;;;;17.57;16.67;;;;;;;;;;5094588;28;20440;-88
2021/08/09 04:55:36;;;;;;;19.47;18.37;;;;;;;;;;5094171;28;20453;-92
2021/08/09 04:58:03;;;;;;;18.40;17.27;;;;;;;;;;5094279;28;20445;-91
2021/08/09 05:00:31;;;;;;;19.67;18.27;;;;;;;;;;5094885;28;20411;-93
2021/08/09 05:02:58;;;;;;;18.13;16.93;;;;;;;;;;5095025;28;20433;-89
2021/08/09 05:05:25;;;;;;;19.17;17.97;;;;;;;;;;5095106;28;20450;-88
2021/08/09 05:07:56;;;;;;;18.70;17.70;;;;;;;;;;5094004;28;20452;-87
2021/08/09 05:10:23;;;;;;;17.90;16.90;;;;;;;;;;5094489;28;20472;-88
2021/08/09 05:12:51;;;;;;;18.70;17.30;;;;;;;;;;5093566;28;20853;-88
2021/08/09 05:15:20;;;;;;;17.93;17.03;;;;;;;;;;5095022;28;20448;-88
2021/08/09 05:17:47;;;;;;;20.43;18.93;;;;;;;;;;5094642;28;20440;-88
2021/08/09 05:20:14;;;;;;;19.87;18.67;;;;;;;;;;5095074;28;20480;-87
2021/08/09 05:22:42;;;;;;;18.90;17.57;;;;;;;;;;5094298;28;20419;-88
2021/08/09 05:25:12;;;;;;;18.90;17.77;;;;;;;;;;5094543;28;20408;-87
2021/08/09 05:27:40;;;;;;;18.70;17.57;;;;;;;;;;5094559;28;20433;-88
2021/08/09 05:30:08;;;;;;;18.73;17.73;;;;;;;;;;5093278;28;20484;-88
2021/08/09 05:32:35;;;;;;;17.83;16.83;;;;;;;;;;5094480;28;20442;-88
2021/08/09 05:35:03;;;;;;;18.43;17.33;;;;;;;;;;5094573;28;20441;-88
2021/08/09 05:37:32;;;;;;;18.90;17.70;;;;;;;;;;5094957;28;20457;-87
2021/08/09 05:39:59;;;;;;;19.10;18.07;;;;;;;;;;5093398;28;20509;-87
2021/08/09 05:42:28;;;;;;;19.40;18.30;;;;;;;;;;5094439;28;21003;-88
2021/08/09 05:44:55;;;;;;;19.00;17.70;;;;;;;;;;5094656;28;20448;-88
2021/08/09 05:47:23;;;;;;;18.63;17.60;;;;;;;;;;5094087;28;20465;-88
2021/08/09 05:49:50;;;;;;;19.63;18.63;;;;;;;;;;5094534;28;20462;-87
2021/08/09 05:52:21;;;;;;;19.23;18.23;;;;;;;;;;5094118;28;20415;-87
2021/08/09 05:54:48;;;;;;;19.00;17.80;;;;;;;;;;5093339;28;20829;-88
2021/08/09 05:57:16;;;;;;;19.03;18.03;;;;;;;;;;5094235;28;20893;-88
2021/08/09 05:59:45;;;;;;;19.23;18.03;;;;;;;;;;5097619;28;20440;-87
2021/08/09 06:02:13;;;;;;;19.50;18.20;;;;;;;;;;5098486;28;20412;-87
2021/08/09 06:04:41;;;;;;;19.40;18.33;;;;;;;;;;5097420;28;20416;-87
2021/08/09 06:07:12;;;;;;;19.50;18.40;;;;;;;;;;5098583;28;20429;-87
2021/08/09 06:09:39;;;;;;;20.37;18.83;;;;;;;;;;5098479;28;20451;-87
2021/08/09 06:12:07;;;;;;;20.67;19.37;;;;;;;;;;5098351;28;20435;-87
2021/08/09 06:14:34;;;;;;;19.93;18.70;;;;;;;;;;5098309;28;20415;-88
2021/08/09 06:17:03;;;;;;;18.90;17.80;;;;;;;;;;5098156;28;20920;-87
2021/08/09 06:19:31;;;;;;;20.00;18.80;;;;;;;;;;5098302;28;20469;-87
2021/08/09 06:21:58;;;;;;;19.43;18.33;;;;;;;;;;5097911;28;20409;-87
2021/08/09 06:24:25;;;;;;;20.17;18.77;;;;;;;;;;5097928;28;20449;-88
2021/08/09 06:26:53;;;;;;;19.20;18.20;;;;;;;;;;5097932;28;20435;-87
2021/08/09 06:29:20;;;;;;;19.60;18.50;;;;;;;;;;5097706;28;20485;-87
2021/08/09 06:31:47;;;;;;;19.57;18.33;;;;;;;;;;5098228;28;20432;-89
2021/08/09 06:34:16;;;;;;;19.30;18.20;;;;;;;;;;5097862;28;20415;-88
2021/08/09 06:36:44;;;;;;;19.70;18.60;;;;;;;;;;5097703;28;20406;-88
2021/08/09 06:39:12;;;;;;;19.80;18.63;;;;;;;;;;5097739;28;20442;-95
2021/08/09 06:41:40;;;;;;;18.57;17.57;;;;;;;;;;5096765;28;20898;-88
2021/08/09 06:44:08;;;;;;;19.10;18.00;;;;;;;;;;5097746;28;20427;-87
2021/08/09 06:46:35;;;;;;;19.93;18.80;;;;;;;;;;5096527;28;20486;-86
2021/08/09 06:49:04;;;;;;;19.93;18.87;;;;;;;;;;5096424;28;20476;-87
2021/08/09 06:51:33;;;;;;;20.27;19.17;;;;;;;;;;5106813;27;20443;-90
2021/08/09 06:54:01;;;;;;;19.60;18.60;;;;;;;;;;5118056;28;20408;-85
2021/08/09 06:56:28;;;;;;;19.40;18.43;;;;;;;;;;5117509;28;20886;-85
2021/08/09 06:58:56;;;;;;;20.00;18.90;;;;;;;;;;5116600;28;20420;-85
2021/08/09 07:01:23;;;;;;;19.40;18.20;;;;;;;;;;5117523;28;20416;-86
2021/08/09 07:03:51;;;;;;;19.40;18.40;;;;;;;;;;5117320;28;20432;-85
2021/08/09 07:06:20;;;;;;;18.80;17.83;;;;;;;;;;5116328;28;20899;-85
2021/08/09 07:08:49;;;;;;;19.13;18.10;;;;;;;;;;5116591;28;20426;-85
2021/08/09 07:11:17;;;;;;;19.30;18.17;;;;;;;;;;5117563;28;20464;-86
2021/08/09 07:13:45;;;;;;;18.97;17.90;;;;;;;;;;5116370;28;20923;-85
2021/08/09 07:16:12;;;;;;;19.47;18.17;;;;;;;;;;5117469;28;20459;-86
2021/08/09 07:18:40;;;;;;;19.37;18.37;;;;;;;;;;5117339;28;20449;-85
2021/08/09 07:21:11;;;;;;;19.53;18.30;;;;;;;;;;5117592;28;20403;-87
2021/08/09 07:23:38;;;;;;;20.30;18.90;;;;;;;;;;5117158;28;20416;-87
2021/08/09 07:26:07;;;;;;;19.30;17.90;;;;;;;;;;5117380;28;20949;-87
2021/08/09 07:28:35;;;;;;;18.83;17.83;;;;;;;;;;5117320;28;20460;-90
2021/08/09 07:31:02;;;;;;;20.07;18.33;;;;;;;;;;5116876;28;20460;-85
2021/08/09 07:33:30;;;;;;;19.33;18.20;;;;;;;;;;5118094;28;20450;-85
2021/08/09 07:36:00;;;;;;;19.30;18.10;;;;;;;;;;5116432;28;20404;-85
2021/08/09 07:38:28;;;;;;;19.83;18.73;;;;;;;;;;5116841;28;20444;-87
2021/08/09 07:40:55;;;;;;;19.00;18.00;;;;;;;;;;5116800;28;20438;-85
2021/08/09 07:43:24;;;;;;;19.50;18.27;;;;;;;;;;5116915;28;20455;-85
2021/08/09 07:45:51;;;;;;;19.07;18.07;;;;;;;;;;5116630;28;20470;-85
2021/08/09 07:48:19;;;;;;;18.73;17.70;;;;;;;;;;5116783;28;20404;-85
2021/08/09 07:50:46;;;;;;;19.73;18.50;;;;;;;;;;5116545;28;20507;-85
2021/08/09 07:53:14;;;;;;;20.40;19.30;;;;;;;;;;5116728;28;20432;-85
2021/08/09 07:55:41;;;;;;;19.47;18.47;;;;;;;;;;5116618;28;20437;-85
2021/08/09 07:58:09;;;;;;;18.70;17.70;;;;;;;;;;5116639;28;20442;-86
2021/08/09 08:00:39;;;;;;;19.67;18.47;;;;;;;;;;5116513;28;20468;-86
2021/08/09 08:03:07;;;;;;;19.33;18.20;;;;;;;;;;5116400;28;20438;-85
2021/08/09 08:05:35;;;;;;;20.00;18.90;;;;;;;;;;5116224;28;20433;-85
2021/08/09 08:08:03;;;;;;;19.10;18.10;;;;;;;;;;5115253;28;20449;-85
2021/08/09 08:10:30;;;;;;;18.90;17.87;;;;;;;;;;5116348;28;20579;-83
2021/08/09 08:12:58;;;;;;;19.20;17.87;;;;;;;;;;5115266;28;20472;-85
2021/08/09 08:15:26;;;;;;;18.57;17.40;;;;;;;;;;5116554;28;20786;-86
2021/08/09 08:17:55;;;;;;;19.60;18.33;;;;;;;;;;5116330;28;20429;-86
2021/08/09 08:20:23;;;;;;;19.30;17.97;;;;;;;;;;5115397;28;20465;-85
2021/08/09 08:22:50;;;;;;;19.63;18.30;;;;;;;;;;5115745;28;20509;-85
2021/08/09 08:25:17;;;;;;;19.63;18.30;;;;;;;;;;5116100;28;20409;-85
2021/08/09 08:27:45;;;;;;;20.83;19.53;;;;;;;;;;5114731;28;20761;-85
2021/08/09 08:30:13;;;;;;;18.80;17.80;;;;;;;;;;5115722;28;20964;-86
2021/08/09 08:32:40;;;;;;;19.60;18.40;;;;;;;;;;5116015;28;20434;-89
2021/08/09 08:35:10;;;;;;;19.97;18.50;;;;;;;;;;5115698;28;20832;-85
2021/08/09 08:37:37;;;;;;;19.03;17.83;;;;;;;;;;5115330;28;20423;-85
2021/08/09 08:40:05;;;;;;;20.57;19.17;;;;;;;;;;5115975;28;20416;-85
2021/08/09 08:42:33;;;;;;;20.40;18.63;;;;;;;;;;5115413;28;20445;-85
2021/08/09 08:45:03;;;;;;;19.50;18.37;;;;;;;;;;5114407;28;20859;-85
2021/08/09 08:47:30;;;;;;;21.03;19.73;;;;;;;;;;5114132;28;20455;-85
2021/08/09 08:50:00;;;;;;;19.80;18.50;;;;;;;;;;5114618;28;20509;-91
2021/08/09 08:52:29;;;;;;;20.10;18.90;;;;;;;;;;5114911;28;20447;-85
2021/08/09 08:54:57;;;;;;;19.93;18.73;;;;;;;;;;5115213;28;20423;-85
2021/08/09 08:57:25;;;;;;;21.37;19.87;;;;;;;;;;5115231;28;20457;-85
2021/08/09 08:59:52;;;;;;;20.00;18.53;;;;;;;;;;5115133;28;20450;-85
2021/08/09 09:02:40;;;;;;;20.13;18.93;;;;;;;;;;5115359;28;20445;-85
2021/08/09 09:05:08;;;;;;;20.17;19.17;;;;;;;;;;5111018;28;20486;-85
2021/08/09 09:07:37;;;;;;;19.70;18.40;;;;;;;;;;5115323;28;20906;-87
2021/08/09 09:10:14;;;;;;;20.20;19.10;;;;;;;;;;5115698;28;20452;-87
2021/08/09 09:12:42;;;;;;;20.93;19.80;;;;;;;;;;5115289;28;20462;-86
2021/08/09 09:15:10;;;;;;;19.50;18.40;;;;;;;;;;5115382;28;20552;-87
2021/08/09 09:17:38;;;;;;;19.73;18.63;;;;;;;;;;5115343;28;20453;-87
2021/08/09 09:20:23;;;;;;;19.70;18.60;;;;;;;;;;5115108;28;20793;-87
2021/08/09 09:22:52;;;;;;;19.50;18.27;;;;;;;;;;5115238;28;20411;-87
2021/08/09 09:25:33;;;;;;;18.93;17.80;;;;;;;;;;5115755;28;20807;-88
2021/08/09 09:28:00;;;;;;;19.63;18.43;;;;;;;;;;5115285;28;20409;-88
2021/08/09 09:30:29;;;;;;;19.63;18.33;;;;;;;;;;5115078;28;20460;-87
2021/08/09 09:32:59;;;;;;;19.63;18.63;;;;;;;;;;5114912;28;20770;-87
2021/08/09 09:35:27;;;;;;;19.70;18.77;;;;;;;;;;5115268;28;20441;-87
2021/08/09 09:37:56;;;;;;;21.50;20.00;;;;;;;;;;5114054;28;20426;-87
2021/08/09 09:40:24;;;;;;;20.03;19.03;;;;;;;;;;5114945;28;20928;-87
2021/08/09 09:42:53;;;;;;;19.63;18.53;;;;;;;;;;5114884;28;20437;-87
2021/08/09 09:45:23;;;;;;;20.13;18.93;;;;;;;;;;5115631;28;20847;-87
2021/08/09 09:48:02;;;;;;;20.53;19.03;;;;;;;;;;5114459;28;20452;-86
2021/08/09 09:50:29;;;;;;;20.03;18.93;;;;;;;;;;5115258;28;20949;-86
2021/08/09 09:52:58;;;;;;;19.00;18.00;;;;;;;;;;5114846;28;20525;-87
2021/08/09 09:55:26;;;;;;;19.53;18.47;;;;;;;;;;5114506;28;20905;-87
2021/08/09 09:57:53;;;;;;;20.20;18.80;;;;;;;;;;5114844;28;20407;-87
2021/08/09 10:00:21;;;;;;;19.07;18.17;;;;;;;;;;5114801;28;20444;-87
2021/08/09 10:02:49;;;;;;;19.13;18.10;;;;;;;;;;5113647;28;20468;-87
2021/08/09 10:05:17;;;;;;;20.60;19.20;;;;;;;;;;5114694;28;20443;-87
2021/08/09 10:07:47;;;;;;;19.27;18.27;;;;;;;;;;5114768;28;20463;-87
2021/08/09 10:10:16;;;;;;;19.87;18.77;;;;;;;;;;5114649;28;20478;-88
2021/08/09 10:12:48;;;;;;;19.70;18.50;;;;;;;;;;5114662;28;20469;-88
2021/08/09 10:15:18;;;;;;;19.83;18.63;;;;;;;;;;5115092;28;20487;-86
2021/08/09 10:17:46;;;;;;;21.73;20.20;;;;;;;;;;5114748;28;20443;-88
2021/08/09 10:20:13;;;;;;;19.67;18.60;;;;;;;;;;5114557;28;20485;-87
2021/08/09 10:22:41;;;;;;;20.00;18.83;;;;;;;;;;5114328;28;20433;-88
2021/08/09 10:25:09;;;;;;;20.80;19.60;;;;;;;;;;5114763;28;20441;-87
2021/08/09 10:27:53;;;;;;;19.53;18.33;;;;;;;;;;5114803;28;20768;-87
2021/08/09 10:30:22;;;;;;;19.60;18.50;;;;;;;;;;5114952;28;20809;-87
2021/08/09 10:32:51;;;;;;;20.53;19.33;;;;;;;;;;5114468;28;20420;-87
2021/08/09 10:35:38;;;;;;;20.30;19.07;;;;;;;;;;5114391;28;20413;-87
2021/08/09 10:38:13;;;;;;;21.07;19.67;;;;;;;;;;5114428;28;20904;-87
2021/08/09 10:40:41;;;;;;;20.20;19.00;;;;;;;;;;5114762;28;20423;-87
2021/08/09 10:43:10;;;;;;;20.03;18.70;;;;;;;;;;5115523;28;20458;-87
2021/08/09 10:45:41;;;;;;;19.80;18.70;;;;;;;;;;5118209;28;20454;-87
2021/08/09 10:48:09;;;;;;;20.10;18.80;;;;;;;;;;5077439;28;20906;-88
2021/08/09 10:50:52;;;;;;;20.10;19.10;;;;;;;;;;5077158;28;20484;-87
2021/08/09 10:53:38;;;;;;;23.13;21.40;;;;;;;;;;5077135;28;20451;-87
2021/08/09 10:56:06;;;;;;;20.17;19.13;;;;;;;;;;5077421;28;20415;-87
2021/08/09 10:58:48;;;;;;;19.80;18.70;;;;;;;;;;5075979;28;20439;-90
2021/08/09 11:01:17;;;;;;;21.00;19.80;;;;;;;;;;5074911;28;20481;-86
2021/08/09 11:04:03;;;;;;;20.60;19.50;;;;;;;;;;5076922;28;20422;-87
2021/08/09 11:06:39;;;;;;;19.67;18.67;;;;;;;;;;5077194;28;21051;-86
2021/08/09 11:09:22;;;;;;;21.30;19.47;;;;;;;;;;5079977;28;20398;-87
2021/08/09 11:12:07;;;;;;;19.57;18.47;;;;;;;;;;5076556;28;20468;-87
2021/08/09 11:14:55;;;;;;;21.13;19.80;;;;;;;;;;5067204;28;20452;-87
2021/08/09 11:17:23;;;;;;;20.30;19.20;;;;;;;;;;5076619;28;20447;-87
2021/08/09 11:19:51;;;;;;;19.67;18.47;;;;;;;;;;5077186;28;20471;-88
2021/08/09 11:22:18;;;;;;;20.30;19.20;;;;;;;;;;5075540;28;20490;-89
2021/08/09 11:24:46;;;;;;;20.40;19.20;;;;;;;;;;5077017;28;20491;-87
2021/08/09 11:27:14;;;;;;;20.30;19.10;;;;;;;;;;5076610;28;20435;-90
2021/08/09 11:29:54;;;;;;;19.47;18.47;;;;;;;;;;5076639;28;20422;-90
2021/08/09 11:32:42;;;;;;;20.17;18.93;;;;;;;;;;5075382;28;20477;-89
2021/08/09 11:35:10;;;;;;;21.07;19.80;;;;;;;;;;5076830;28;20498;-91
2021/08/09 11:37:57;;;;;;;20.23;19.10;;;;;;;;;;5076810;28;20443;-87
2021/08/09 11:40:38;;;;;;;21.20;20.00;;;;;;;;;;5076911;28;20443;-87
2021/08/09 11:43:06;;;;;;;21.33;20.13;;;;;;;;;;5076568;28;20444;-88
2021/08/09 11:45:33;;;;;;;20.27;19.27;;;;;;;;;;5076660;28;20417;-87
2021/08/09 11:48:02;;;;;;;20.93;19.73;;;;;;;;;;5114927;28;20482;-87
2021/08/09 11:50:35;;;;;;;20.60;19.50;;;;;;;;;;5116856;28;20459;-87
2021/08/09 11:53:02;;;;;;;20.73;19.63;;;;;;;;;;5116585;28;20408;-87
2021/08/09 11:55:30;;;;;;;20.50;19.30;;;;;;;;;;5116445;28;20903;-87
2021/08/09 11:57:57;;;;;;;20.63;19.50;;;;;;;;;;5115690;28;20910;-87
2021/08/09 12:00:25;;;;;;;20.57;19.20;;;;;;;;;;5115154;28;20445;-87
2021/08/09 12:03:23;;;;;;;21.10;19.70;;;;;;;;;;5117089;28;20446;-86
2021/08/09 12:05:50;;;;;;;19.80;18.53;;;;;;;;;;5116583;28;20455;-86
2021/08/09 12:08:18;;;;;;;19.53;18.40;;;;;;;;;;5116375;27;20439;-87
2021/08/09 12:10:46;;;;;;;19.90;18.70;;;;;;;;;;5116325;28;21028;-86
2021/08/09 12:13:23;;;;;;;20.10;18.80;;;;;;;;;;5116519;28;20915;-86
2021/08/09 12:16:07;;;;;;;20.03;18.93;;;;;;;;;;5116310;28;20458;-86
2021/08/09 12:18:35;;;;;;;20.60;19.37;;;;;;;;;;5116498;27;20466;-86
2021/08/09 12:21:10;;;;;;;20.50;19.20;;;;;;;;;;5116040;28;20404;-86
2021/08/09 12:23:49;;;;;;;20.03;18.83;;;;;;;;;;5116632;28;20801;-86
2021/08/09 12:26:27;;;;;;;20.43;19.13;;;;;;;;;;5116661;28;20424;-87
2021/08/09 12:28:56;;;;;;;19.63;18.50;;;;;;;;;;5117215;27;20493;-86
2021/08/09 12:31:30;;;;;;;20.20;18.77;;;;;;;;;;5114711;28;20837;-86
2021/08/09 12:34:04;;;;;;;20.10;18.80;;;;;;;;;;5116085;28;20743;-87
2021/08/09 12:36:31;;;;;;;20.73;19.47;;;;;;;;;;5115015;28;20426;-87
2021/08/09 12:38:59;;;;;;;20.50;19.30;;;;;;;;;;5116450;28;20435;-86
2021/08/09 12:41:27;;;;;;;20.10;19.00;;;;;;;;;;5114826;28;20835;-86
2021/08/09 12:43:54;;;;;;;20.67;19.37;;;;;;;;;;5116400;28;20451;-87
2021/08/09 12:46:22;;;;;;;19.53;18.40;;;;;;;;;;5114373;28;20449;-87
2021/08/09 12:48:49;;;;;;;19.90;18.80;;;;;;;;;;5115816;28;20426;-87
2021/08/09 12:51:19;;;;;;;19.83;18.73;;;;;;;;;;5115653;28;20450;-87
2021/08/09 12:53:48;;;;;;;20.33;19.17;;;;;;;;;;5115680;28;20416;-86
2021/08/09 12:56:15;;;;;;;20.03;18.93;;;;;;;;;;5115547;28;20413;-87
2021/08/09 12:58:43;;;;;;;20.37;19.27;;;;;;;;;;5115973;28;20412;-88
2021/08/09 13:01:10;;;;;;;20.23;19.03;;;;;;;;;;5115396;28;20433;-88
2021/08/09 13:03:37;;;;;;;21.53;20.13;;;;;;;;;;5113510;28;20433;-88
2021/08/09 13:06:08;;;;;;;20.60;19.40;;;;;;;;;;5115461;28;20946;-88
2021/08/09 13:08:37;;;;;;;20.33;19.13;;;;;;;;;;5115243;28;20419;-88
2021/08/09 13:11:04;;;;;;;19.70;18.60;;;;;;;;;;5115359;28;20930;-88
2021/08/09 13:13:32;;;;;;;20.60;19.30;;;;;;;;;;5115974;28;20853;-89
2021/08/09 13:15:59;;;;;;;20.50;19.10;;;;;;;;;;5115334;28;20466;-88
2021/08/09 13:18:27;;;;;;;19.87;18.60;;;;;;;;;;5115352;28;20967;-89
2021/08/09 13:20:55;;;;;;;20.87;19.57;;;;;;;;;;5115305;28;20410;-90
2021/08/09 13:23:23;;;;;;;20.30;18.90;;;;;;;;;;5115307;28;20422;-87
2021/08/09 13:25:51;;;;;;;19.83;18.70;;;;;;;;;;5115601;28;20484;-88
2021/08/09 13:28:19;;;;;;;19.50;18.40;;;;;;;;;;5114108;28;20971;-87
2021/08/09 13:30:46;;;;;;;19.47;18.20;;;;;;;;;;5114905;28;20460;-89
2021/08/09 13:33:14;;;;;;;20.53;19.30;;;;;;;;;;5114969;28;20422;-88
2021/08/09 13:35:42;;;;;;;20.60;19.30;;;;;;;;;;5115823;28;20474;-88
2021/08/09 13:38:10;;;;;;;19.87;18.67;;;;;;;;;;5115588;28;20409;-88
2021/08/09 13:40:37;;;;;;;20.60;19.30;;;;;;;;;;5115102;28;20432;-88
2021/08/09 13:43:06;;;;;;;20.80;19.60;;;;;;;;;;5114992;28;20435;-88
2021/08/09 13:45:34;;;;;;;21.13;19.70;;;;;;;;;;5114817;28;20465;-88
2021/08/09 13:48:02;;;;;;;20.03;18.97;;;;;;;;;;5114449;28;20475;-88
2021/08/09 13:50:30;;;;;;;20.63;19.43;;;;;;;;;;5114669;28;20907;-88
2021/08/09 13:52:58;;;;;;;20.90;19.70;;;;;;;;;;5114711;28;20458;-89
2021/08/09 13:55:25;;;;;;;21.30;19.90;;;;;;;;;;5114877;28;20431;-88
2021/08/09 13:57:53;;;;;;;20.63;19.47;;;;;;;;;;5114900;28;20413;-88
2021/08/09 14:00:22;;;;;;;21.27;19.77;;;;;;;;;;5114619;28;20446;-88
2021/08/09 14:02:49;;;;;;;21.30;20.10;;;;;;;;;;5114525;28;20413;-88
2021/08/09 14:05:17;;;;;;;21.33;20.00;;;;;;;;;;5114984;28;20439;-94
2021/08/09 14:07:44;;;;;;;21.13;19.90;;;;;;;;;;5113581;28;20784;-90
2021/08/09 14:10:12;;;;;;;22.27;20.77;;;;;;;;;;5114122;28;20466;-88
2021/08/09 14:12:41;;;;;;;21.13;19.57;;;;;;;;;;5114595;28;20489;-90
2021/08/09 14:15:10;;;;;;;21.83;20.37;;;;;;;;;;5114663;28;20897;-91
2021/08/09 14:17:39;;;;;;;22.03;20.73;;;;;;;;;;5096790;28;20754;-91
2021/08/09 14:20:08;;;;;;;21.40;20.10;;;;;;;;;;5115821;28;20866;-91
2021/08/09 14:22:35;;;;;;;20.30;19.20;;;;;;;;;;5118533;28;20483;-91
2021/08/09 14:25:02;;;;;;;22.17;20.97;;;;;;;;;;5118768;28;20415;-91
2021/08/09 14:27:30;;;;;;;21.83;20.50;;;;;;;;;;5118768;28;20773;-91